Time;durP1;ratioP1;P1;durP2;ratioP2;P2;SDS_P1;SDS_P2;PMS_P1;PMS_P2;Temp;Humidity;BMP_temperature;BMP_pressure;BME280_temperature;BME280_humidity;BME280_pressure;Samples;Min_cycle;Max_cycle;Signal;HPM_P1;HPM_P2
2023/07/16 00:00:05;;;;;;;7.50;3.10;;;;;;;16.21;100.00;100608.47;5096286;27;22311;-76
2023/07/16 00:02:51;;;;;;;12.75;3.22;;;;;;;16.25;100.00;100607.25;5096444;27;20104;-75
2023/07/16 00:05:38;;;;;;;8.30;3.30;;;;;;;16.27;100.00;100602.66;5098314;27;20059;-76
2023/07/16 00:08:24;;;;;;;7.18;2.75;;;;;;;16.26;100.00;100608.13;5081912;28;20067;-76
2023/07/16 00:11:09;;;;;;;5.65;2.63;;;;;;;16.20;100.00;100612.09;5096735;27;20042;-75
2023/07/16 00:13:55;;;;;;;6.45;2.50;;;;;;;16.12;100.00;100606.47;5097501;28;20047;-75
2023/07/16 00:16:41;;;;;;;6.20;2.35;;;;;;;16.00;100.00;100605.53;5082454;28;20028;-76
2023/07/16 00:19:26;;;;;;;9.07;2.50;;;;;;;15.88;100.00;100602.75;5096578;28;20084;-76
2023/07/16 00:22:12;;;;;;;7.65;2.05;;;;;;;15.77;100.00;100610.69;5095456;28;20047;-76
2023/07/16 00:24:58;;;;;;;7.47;2.10;;;;;;;15.68;100.00;100608.66;5095961;28;20541;-76
2023/07/16 00:27:44;;;;;;;8.52;2.35;;;;;;;15.57;100.00;100606.72;5097097;28;20039;-76
2023/07/16 00:30:29;;;;;;;7.35;2.10;;;;;;;15.48;100.00;100608.25;5082742;28;20591;-76
2023/07/16 00:33:15;;;;;;;7.50;2.58;;;;;;;15.42;100.00;100611.34;5082160;28;20432;-77
2023/07/16 00:36:01;;;;;;;6.03;2.00;;;;;;;15.36;100.00;100606.44;5068015;28;20511;-76
2023/07/16 00:38:47;;;;;;;6.35;1.80;;;;;;;15.32;100.00;100611.97;5069855;28;20027;-76
2023/07/16 00:41:32;;;;;;;3.80;1.98;;;;;;;15.29;100.00;100619.34;5082925;28;20664;-76
2023/07/16 00:44:18;;;;;;;7.78;2.50;;;;;;;15.26;100.00;100612.41;5069819;28;20052;-76
2023/07/16 00:47:04;;;;;;;6.00;2.20;;;;;;;15.25;100.00;100618.69;5096254;28;20146;-76
2023/07/16 00:49:50;;;;;;;8.50;2.13;;;;;;;15.25;100.00;100612.53;5080499;28;20046;-76
2023/07/16 00:52:36;;;;;;;9.20;2.45;;;;;;;15.27;100.00;100616.78;5081503;28;20031;-77
2023/07/16 00:55:21;;;;;;;4.45;2.17;;;;;;;15.26;100.00;100615.06;5081497;28;20032;-76
2023/07/16 00:58:08;;;;;;;5.50;2.47;;;;;;;15.25;100.00;100605.34;5097332;28;20126;-77
2023/07/16 01:00:53;;;;;;;7.07;2.50;;;;;;;15.25;100.00;100602.69;5084204;27;20040;-77
2023/07/16 01:03:39;;;;;;;8.10;2.20;;;;;;;15.25;100.00;100607.19;5089159;27;20046;-76
2023/07/16 01:06:53;;;;;;;8.25;2.58;;;;;;;15.24;100.00;100606.31;5084650;27;20047;-76
2023/07/16 01:09:39;;;;;;;;;;;;;;;15.25;100.00;100600.03;5101217;27;20056;-76
2023/07/16 01:12:27;;;;;;;8.20;3.15;;;;;;;15.25;100.00;100605.34;5101333;27;19924;-77
2023/07/16 01:15:12;;;;;;;7.90;2.83;;;;;;;15.26;100.00;100608.88;5086843;27;20031;-77
2023/07/16 01:17:58;;;;;;;7.93;2.92;;;;;;;15.26;100.00;100599.06;5085011;27;20946;-77
2023/07/16 01:20:44;;;;;;;8.50;2.72;;;;;;;15.25;100.00;100596.53;5099531;27;20495;-77
2023/07/16 01:23:55;;;;;;;7.13;2.67;;;;;;;15.25;100.00;100596.53;5101029;27;20048;-77
2023/07/16 01:27:38;;;;;;;7.18;2.67;;;;;;;15.25;100.00;100592.03;5100486;27;20039;-77
2023/07/16 01:30:26;;;;;;;6.50;2.20;;;;;;;15.28;100.00;100590.97;4987975;28;20041;-77
2023/07/16 01:33:13;;;;;;;5.32;2.22;;;;;;;15.26;100.00;100588.41;4988878;28;20350;-77
2023/07/16 01:36:02;;;;;;;7.38;2.00;;;;;;;15.24;100.00;100601.00;5071896;27;20600;-77
2023/07/16 01:38:47;;;;;;;8.10;2.70;;;;;;;15.25;100.00;100597.34;5084913;27;20036;-77
2023/07/16 01:41:33;;;;;;;6.28;1.98;;;;;;;15.27;100.00;100599.94;5100001;27;20126;-77
2023/07/16 01:44:19;;;;;;;6.05;2.13;;;;;;;15.27;100.00;100598.13;5086291;27;20060;-76
2023/07/16 01:47:12;;;;;;;5.57;2.50;;;;;;;15.27;100.00;100600.78;5085022;27;20504;-77
2023/07/16 01:49:58;;;;;;;6.28;2.08;;;;;;;15.27;100.00;100598.13;5100117;27;20077;-76
2023/07/16 01:52:44;;;;;;;4.07;1.98;;;;;;;15.27;100.00;100594.59;5101002;27;20067;-76
2023/07/16 01:55:29;;;;;;;6.72;2.00;;;;;;;15.30;100.00;100602.38;5084789;27;20036;-76
2023/07/16 01:58:15;;;;;;;4.18;1.98;;;;;;;15.33;100.00;100599.50;5099747;27;20581;-76
2023/07/16 02:01:01;;;;;;;4.25;1.90;;;;;;;15.37;100.00;100600.16;5099100;27;20708;-76
2023/07/16 02:03:46;;;;;;;4.32;1.70;;;;;;;15.38;100.00;100602.72;5099760;27;20030;-76
2023/07/16 02:06:32;;;;;;;2.42;1.48;;;;;;;15.39;100.00;100598.22;5099253;27;20158;-76
2023/07/16 02:09:18;;;;;;;5.57;2.05;;;;;;;15.40;100.00;100599.91;5085058;27;21655;-76
2023/07/16 02:12:04;;;;;;;5.60;2.00;;;;;;;15.41;100.00;100597.16;5097882;27;20035;-76
2023/07/16 02:14:50;;;;;;;6.32;1.90;;;;;;;15.44;100.00;100606.75;5098205;27;20031;-76
2023/07/16 02:17:35;;;;;;;7.70;2.40;;;;;;;15.45;100.00;100608.47;5098738;27;20092;-76
2023/07/16 02:20:21;;;;;;;7.20;2.38;;;;;;;15.46;100.00;100604.81;5084237;27;20039;-76
2023/07/16 02:23:07;;;;;;;6.05;2.20;;;;;;;15.50;100.00;100613.47;5100991;27;20264;-76
2023/07/16 02:25:52;;;;;;;6.47;2.38;;;;;;;15.52;100.00;100609.72;5098744;27;20127;-77
2023/07/16 02:28:38;;;;;;;7.20;2.63;;;;;;;15.54;100.00;100599.81;5084558;27;20032;-76
2023/07/16 02:31:24;;;;;;;7.13;3.42;;;;;;;15.58;100.00;100608.47;5101387;27;20057;-75
2023/07/16 02:34:10;;;;;;;7.70;3.80;;;;;;;15.68;100.00;100604.16;5099352;27;20058;-76
2023/07/16 02:36:55;;;;;;;7.38;3.60;;;;;;;15.75;100.00;100599.25;5099008;27;20130;-75
2023/07/16 02:39:42;;;;;;;10.45;3.60;;;;;;;15.83;100.00;100599.56;5099953;27;20034;-76
2023/07/16 02:42:29;;;;;;;7.18;3.72;;;;;;;15.90;100.00;100610.63;5099801;27;20053;-79
2023/07/16 02:45:15;;;;;;;7.78;3.60;;;;;;;15.94;100.00;100597.94;5077223;27;20038;-75
2023/07/16 02:48:02;;;;;;;11.32;3.80;;;;;;;15.96;100.00;100590.72;5082662;27;20483;-75
2023/07/16 02:50:48;;;;;;;6.35;3.75;;;;;;;15.98;100.00;100596.78;5098528;27;20035;-76
2023/07/16 02:53:34;;;;;;;6.65;3.30;;;;;;;15.99;100.00;100595.81;5082740;27;20058;-77
2023/07/16 02:56:19;;;;;;;10.80;3.88;;;;;;;15.99;100.00;100596.69;5076421;27;20051;-76
2023/07/16 02:59:05;;;;;;;9.05;4.13;;;;;;;16.01;100.00;100594.75;5097950;27;20543;-76
2023/07/16 03:01:51;;;;;;;11.02;4.32;;;;;;;16.02;100.00;100596.44;5098678;27;20502;-75
2023/07/16 03:04:37;;;;;;;8.02;3.65;;;;;;;16.05;100.00;100599.84;5097253;27;20098;-76
2023/07/16 03:07:22;;;;;;;9.40;4.45;;;;;;;16.08;100.00;100589.78;5097921;27;20040;-75
2023/07/16 03:10:08;;;;;;;5.60;3.65;;;;;;;16.08;100.00;100600.47;5098024;27;20035;-76
2023/07/16 03:12:54;;;;;;;11.20;4.35;;;;;;;16.12;100.00;100596.63;5086241;27;20087;-76
2023/07/16 03:15:40;;;;;;;8.15;4.05;;;;;;;16.17;100.00;100596.28;5085499;27;20054;-75
2023/07/16 03:18:29;;;;;;;11.15;3.75;;;;;;;16.24;100.00;100594.03;5099236;27;20051;-76
2023/07/16 03:21:15;;;;;;;9.18;4.05;;;;;;;16.26;100.00;100602.78;5084207;27;20092;-76
2023/07/16 03:24:01;;;;;;;8.25;3.45;;;;;;;16.27;100.00;100600.00;5099149;27;20059;-76
2023/07/16 03:26:47;;;;;;;8.85;4.10;;;;;;;16.27;100.00;100600.00;5097660;27;20090;-76
2023/07/16 03:29:33;;;;;;;9.63;3.92;;;;;;;16.27;100.00;100593.78;5083889;27;20043;-76
2023/07/16 03:32:19;;;;;;;6.70;3.90;;;;;;;16.26;100.00;100597.44;5069640;27;20267;-76
2023/07/16 03:35:05;;;;;;;9.70;3.97;;;;;;;16.25;100.00;100607.25;5082730;27;20103;-76
2023/07/16 03:37:50;;;;;;;14.85;4.72;;;;;;;16.27;100.00;100591.13;5096450;27;20035;-76
2023/07/16 03:40:36;;;;;;;10.65;4.25;;;;;;;16.27;100.00;100600.00;5098811;27;20064;-76
2023/07/16 03:43:22;;;;;;;9.43;4.07;;;;;;;16.28;100.00;100599.03;5097980;27;20109;-76
2023/07/16 03:46:08;;;;;;;9.45;4.40;;;;;;;16.29;100.00;100602.56;5083622;27;20095;-76
2023/07/16 03:48:54;;;;;;;12.38;4.38;;;;;;;16.33;100.00;100604.03;5099094;27;20039;-76
2023/07/16 03:51:39;;;;;;;9.68;4.60;;;;;;;16.35;100.00;100607.44;5097461;27;20042;-76
2023/07/16 03:54:25;;;;;;;11.63;4.15;;;;;;;16.38;100.00;100615.22;5097773;27;20042;-76
2023/07/16 03:57:11;;;;;;;10.63;4.43;;;;;;;16.38;100.00;100611.69;5097979;27;20051;-74
2023/07/16 03:59:56;;;;;;;8.93;3.92;;;;;;;16.39;100.00;100602.72;5098047;27;20036;-75
2023/07/16 04:02:42;;;;;;;11.70;4.35;;;;;;;16.38;100.00;100603.69;5082135;28;20167;-76
2023/07/16 04:05:28;;;;;;;9.50;4.00;;;;;;;16.38;100.00;100607.22;5083187;28;20077;-75
2023/07/16 04:08:14;;;;;;;7.82;4.40;;;;;;;16.36;100.00;100614.50;5096764;27;20096;-76
2023/07/16 04:10:59;;;;;;;9.05;4.22;;;;;;;16.36;100.00;100611.84;5082006;28;20480;-76
2023/07/16 04:13:45;;;;;;;8.95;4.40;;;;;;;16.38;100.00;100614.38;5099151;27;20047;-76
2023/07/16 04:16:31;;;;;;;9.13;4.47;;;;;;;16.39;100.00;100614.25;5099108;28;20573;-75
2023/07/16 04:19:17;;;;;;;12.05;4.78;;;;;;;16.41;100.00;100623.00;5069316;28;20028;-75
2023/07/16 04:22:03;;;;;;;10.48;5.80;;;;;;;16.43;100.00;100628.25;5083617;28;20117;-75
2023/07/16 04:24:49;;;;;;;11.10;4.38;;;;;;;16.46;100.00;100629.84;5083181;28;20073;-76
2023/07/16 04:27:35;;;;;;;9.07;4.55;;;;;;;16.49;100.00;100624.25;5097997;28;20032;-76
2023/07/16 04:30:21;;;;;;;12.18;3.95;;;;;;;16.49;100.00;100630.47;5099116;28;20772;-76
2023/07/16 04:33:06;;;;;;;10.00;4.47;;;;;;;16.45;100.00;100634.31;5084839;28;20056;-76
2023/07/16 04:35:52;;;;;;;9.60;4.35;;;;;;;16.40;100.00;100642.69;5099114;27;20032;-75
2023/07/16 04:38:38;;;;;;;9.95;4.30;;;;;;;16.39;100.00;100643.66;5086272;27;20042;-75
2023/07/16 04:41:24;;;;;;;9.50;4.20;;;;;;;16.41;100.00;100632.84;5101420;27;20042;-75
2023/07/16 04:44:09;;;;;;;8.52;3.97;;;;;;;16.43;100.00;100650.47;5100481;27;20087;-75
2023/07/16 04:46:55;;;;;;;11.00;4.25;;;;;;;16.45;100.00;100644.16;5103664;27;20178;-75
2023/07/16 04:49:41;;;;;;;10.63;4.13;;;;;;;16.45;100.00;100650.34;5101655;27;20499;-75
2023/07/16 04:52:30;;;;;;;9.77;4.57;;;;;;;16.47;100.00;100650.25;5099694;27;20089;-75
2023/07/16 04:55:15;;;;;;;8.30;4.07;;;;;;;16.48;100.00;100643.94;5087823;27;20040;-74
2023/07/16 04:58:01;;;;;;;8.45;4.13;;;;;;;16.48;100.00;100646.59;5101913;27;20759;-74
2023/07/16 05:00:47;;;;;;;8.43;4.47;;;;;;;16.49;100.00;100650.97;5102290;27;20430;-75
2023/07/16 05:03:33;;;;;;;9.48;4.38;;;;;;;16.51;100.00;100654.41;5086371;27;20489;-77
2023/07/16 05:06:19;;;;;;;8.52;4.03;;;;;;;16.55;100.00;100680.78;5086754;27;20047;-75
2023/07/16 05:09:04;;;;;;;8.05;4.10;;;;;;;16.50;100.00;100679.44;5086453;27;20039;-74
2023/07/16 05:11:50;;;;;;;8.48;4.45;;;;;;;16.23;100.00;100673.28;5086691;27;20032;-74
2023/07/16 05:14:47;;;;;;;8.27;4.50;;;;;;;15.96;100.00;100682.31;5102245;27;20686;-75
2023/07/16 05:17:32;;;;;;;9.50;4.85;;;;;;;15.82;100.00;100682.41;5101226;27;20119;-75
2023/07/16 05:20:18;;;;;;;13.00;4.80;;;;;;;15.73;100.00;100682.09;5086413;27;20039;-75
2023/07/16 05:23:04;;;;;;;9.45;4.35;;;;;;;15.71;100.00;100693.84;5102253;27;20032;-75
2023/07/16 05:25:50;;;;;;;8.52;3.78;;;;;;;15.70;100.00;100690.31;5085790;27;20050;-75
2023/07/16 05:28:36;;;;;;;8.52;4.00;;;;;;;15.72;100.00;100685.72;5072301;27;20031;-75
2023/07/16 05:31:21;;;;;;;10.85;4.22;;;;;;;15.77;100.00;100689.88;5086533;27;20104;-75
2023/07/16 05:34:07;;;;;;;10.15;4.30;;;;;;;15.81;100.00;100686.91;5100475;27;20043;-75
2023/07/16 05:36:56;;;;;;;11.95;4.18;;;;;;;15.88;100.00;100690.84;5085944;27;20027;-75
2023/07/16 05:39:42;;;;;;;7.55;3.83;;;;;;;15.99;100.00;100698.13;5086324;27;20131;-75
2023/07/16 05:42:28;;;;;;;12.43;4.72;;;;;;;16.17;100.00;100699.59;5099400;27;20154;-75
2023/07/16 05:45:13;;;;;;;6.97;3.53;;;;;;;16.28;100.00;100707.69;5083453;27;20411;-76
2023/07/16 05:47:59;;;;;;;10.70;3.85;;;;;;;16.34;100.00;100707.25;5099153;27;20076;-75
2023/07/16 05:50:45;;;;;;;11.57;4.07;;;;;;;16.38;100.00;100702.53;5101929;27;20071;-76
2023/07/16 05:53:31;;;;;;;7.90;3.70;;;;;;;16.49;100.00;100715.97;5101046;27;20032;-76
2023/07/16 05:56:16;;;;;;;5.40;3.30;;;;;;;16.55;100.00;100709.31;5085377;27;20415;-77
2023/07/16 05:59:02;;;;;;;9.25;3.25;;;;;;;16.43;100.00;100717.28;5098601;27;20039;-76
2023/07/16 06:01:48;;;;;;;8.63;3.60;;;;;;;16.26;100.00;100714.94;5098973;27;20036;-76
2023/07/16 06:04:34;;;;;;;13.90;3.90;;;;;;;16.12;100.00;100718.63;5083862;27;20038;-77
2023/07/16 06:07:19;;;;;;;7.50;4.13;;;;;;;16.04;100.00;100715.63;5084687;27;20543;-76
2023/07/16 06:10:06;;;;;;;11.35;4.10;;;;;;;16.05;100.00;100715.53;5083448;27;20036;-77
2023/07/16 06:12:51;;;;;;;8.95;3.63;;;;;;;16.22;100.00;100721.47;5100261;27;20073;-77
2023/07/16 06:15:37;;;;;;;9.07;3.97;;;;;;;16.45;100.00;100718.97;5083603;27;20040;-76
2023/07/16 06:18:23;;;;;;;10.70;4.00;;;;;;;16.59;100.00;100734.00;5100900;27;20118;-75
2023/07/16 06:21:09;;;;;;;7.95;3.97;;;;;;;16.65;100.00;100729.06;5083573;27;22020;-76
2023/07/16 06:23:54;;;;;;;7.45;3.70;;;;;;;16.75;100.00;100728.38;5099675;27;20039;-76
2023/07/16 06:26:41;;;;;;;8.02;3.92;;;;;;;16.87;100.00;100740.84;5098772;27;20051;-76
2023/07/16 06:29:26;;;;;;;8.32;3.80;;;;;;;16.93;100.00;100736.84;5100187;27;20158;-76
2023/07/16 06:32:12;;;;;;;10.25;4.20;;;;;;;16.93;100.00;100740.41;5099008;27;20036;-76
2023/07/16 06:34:58;;;;;;;7.85;3.70;;;;;;;16.90;100.00;100735.28;5098819;27;20380;-76
2023/07/16 06:37:44;;;;;;;9.80;4.43;;;;;;;17.02;100.00;100738.03;5102249;27;20094;-75
2023/07/16 06:40:30;;;;;;;7.93;4.10;;;;;;;17.09;100.00;100750.84;5084296;27;20050;-75
2023/07/16 06:43:16;;;;;;;7.65;4.00;;;;;;;17.14;100.00;100747.81;5084929;27;20060;-76
2023/07/16 06:46:03;;;;;;;8.85;3.53;;;;;;;17.17;100.00;100752.09;5099326;27;20134;-76
2023/07/16 06:48:49;;;;;;;9.82;3.60;;;;;;;17.27;100.00;100757.59;5100644;27;20485;-77
2023/07/16 06:51:34;;;;;;;8.35;3.78;;;;;;;17.30;100.00;100758.22;5100693;27;20368;-76
2023/07/16 06:54:20;;;;;;;6.68;3.55;;;;;;;17.29;100.00;100752.97;5085265;27;20043;-75
2023/07/16 06:57:06;;;;;;;7.68;3.65;;;;;;;17.26;100.00;100778.13;5098912;27;20546;-76
2023/07/16 06:59:52;;;;;;;8.60;4.00;;;;;;;17.24;100.00;100772.06;5098586;27;20042;-76
2023/07/16 07:02:38;;;;;;;9.38;3.90;;;;;;;17.22;100.00;100777.50;5085216;27;20059;-76
2023/07/16 07:05:23;;;;;;;7.22;3.65;;;;;;;17.26;100.00;100770.09;5100745;27;20043;-76
2023/07/16 07:08:09;;;;;;;7.03;3.65;;;;;;;17.33;100.00;100773.19;5082669;27;20027;-76
2023/07/16 07:10:55;;;;;;;7.47;3.55;;;;;;;17.42;100.00;100777.84;5086134;27;20112;-75
2023/07/16 07:13:42;;;;;;;9.90;3.50;;;;;;;17.78;100.00;100783.19;5098710;27;20059;-75
2023/07/16 07:16:27;;;;;;;9.20;3.35;;;;;;;18.07;100.00;100776.56;5085755;27;20160;-75
2023/07/16 07:19:13;;;;;;;7.88;3.80;;;;;;;18.30;100.00;100775.59;5099304;27;20404;-76
2023/07/16 07:21:59;;;;;;;6.60;2.95;;;;;;;18.48;100.00;100790.31;5085108;27;20035;-75
2023/07/16 07:24:45;;;;;;;9.82;3.40;;;;;;;18.67;100.00;100806.63;5087003;27;20078;-76
2023/07/16 07:27:31;;;;;;;6.90;3.65;;;;;;;18.68;100.00;100796.78;5109089;27;20143;-76
2023/07/16 07:30:41;;;;;;;8.23;3.88;;;;;;;18.73;100.00;100807.97;5113046;27;20452;-75
2023/07/16 07:33:41;;;;;;;6.80;3.65;;;;;;;18.82;100.00;100812.59;5106353;27;20035;-75
2023/07/16 07:36:28;;;;;;;10.18;3.45;;;;;;;18.72;100.00;100808.94;5094383;27;20605;-76
2023/07/16 07:39:14;;;;;;;11.45;4.07;;;;;;;18.56;100.00;100815.53;5092458;27;20777;-75
2023/07/16 07:42:00;;;;;;;8.00;3.40;;;;;;;18.40;100.00;100820.41;5087078;27;20429;-75
2023/07/16 07:44:45;;;;;;;10.38;3.85;;;;;;;18.38;100.00;100827.72;5101106;27;20471;-74
2023/07/16 07:47:31;;;;;;;6.15;3.20;;;;;;;18.32;100.00;100816.50;5089948;27;20050;-75
2023/07/16 07:50:17;;;;;;;7.75;3.90;;;;;;;18.38;100.00;100825.03;5077972;27;21569;-75
2023/07/16 07:53:03;;;;;;;8.15;3.80;;;;;;;18.51;100.00;100828.44;5100218;27;20031;-75
2023/07/16 07:55:49;;;;;;;9.05;4.10;;;;;;;18.76;100.00;100823.81;5101296;27;20036;-76
2023/07/16 07:58:37;;;;;;;6.22;3.63;;;;;;;18.87;100.00;100831.81;5105663;27;20103;-75
2023/07/16 08:01:23;;;;;;;6.25;3.53;;;;;;;18.99;100.00;100834.50;5107946;27;20042;-75
2023/07/16 08:04:09;;;;;;;9.45;3.53;;;;;;;19.25;100.00;100826.16;5100512;27;20035;-75
2023/07/16 08:06:55;;;;;;;9.27;3.47;;;;;;;19.45;100.00;100834.41;5106675;27;20107;-75
2023/07/16 08:09:40;;;;;;;8.05;4.00;;;;;;;19.56;100.00;100826.31;5099930;28;20048;-75
2023/07/16 08:12:26;;;;;;;6.97;3.85;;;;;;;19.57;100.00;100840.56;5079137;27;20373;-75
2023/07/16 08:15:15;;;;;;;9.73;3.45;;;;;;;19.70;100.00;100830.50;5107437;28;20035;-75
2023/07/16 08:18:01;;;;;;;8.45;3.85;;;;;;;19.91;100.00;100846.63;5081959;28;20158;-75
2023/07/16 08:20:47;;;;;;;7.80;3.33;;;;;;;20.12;100.00;100848.50;5108789;28;20051;-77
2023/07/16 08:23:33;;;;;;;10.95;3.88;;;;;;;20.32;100.00;100844.06;5076613;28;20027;-76
2023/07/16 08:26:18;;;;;;;9.95;3.78;;;;;;;20.22;100.00;100835.94;5111750;28;20051;-74
2023/07/16 08:29:04;;;;;;;11.35;3.63;;;;;;;20.39;100.00;100852.44;5103940;28;20081;-74
2023/07/16 08:31:50;;;;;;;6.47;3.40;;;;;;;20.39;100.00;100843.53;5106594;28;20743;-75
2023/07/16 08:34:36;;;;;;;5.53;2.88;;;;;;;20.22;100.00;100843.16;5088956;28;20050;-74
2023/07/16 08:37:22;;;;;;;6.50;3.65;;;;;;;20.14;100.00;100853.72;5102465;28;20074;-76
2023/07/16 08:40:09;;;;;;;6.22;3.40;;;;;;;20.24;100.00;100848.38;5102592;28;20097;-75
2023/07/16 08:42:56;;;;;;;10.98;3.45;;;;;;;20.44;99.29;100850.19;5100432;28;20032;-75
2023/07/16 08:45:44;;;;;;;8.77;2.83;;;;;;;20.53;98.28;100858.47;5066686;28;20490;-74
2023/07/16 08:48:30;;;;;;;6.30;2.90;;;;;;;20.35;98.42;100856.38;5055321;28;20519;-74
2023/07/16 08:51:16;;;;;;;10.10;3.33;;;;;;;20.12;98.56;100867.31;5066875;28;20480;-76
2023/07/16 08:54:03;;;;;;;8.20;3.05;;;;;;;20.07;100.00;100878.44;5065705;28;20032;-75
2023/07/16 08:56:48;;;;;;;6.32;2.67;;;;;;;20.17;99.80;100872.28;5067047;28;20389;-74
2023/07/16 08:59:34;;;;;;;5.05;3.40;;;;;;;20.17;100.00;100891.94;5066601;28;20031;-73
2023/07/16 09:02:21;;;;;;;8.95;3.38;;;;;;;20.45;100.00;100880.63;5067472;28;20048;-73
2023/07/16 09:05:09;;;;;;;10.13;3.60;;;;;;;20.75;100.00;100874.38;5063345;28;20089;-73
2023/07/16 09:07:54;;;;;;;11.23;3.58;;;;;;;20.90;100.00;100890.19;5079707;28;20056;-76
2023/07/16 09:10:41;;;;;;;8.20;3.22;;;;;;;21.09;100.00;100878.63;5065288;28;20074;-75
2023/07/16 09:13:27;;;;;;;6.40;2.95;;;;;;;21.12;98.96;100901.72;5065774;28;20219;-73
2023/07/16 09:16:16;;;;;;;10.18;3.17;;;;;;;20.96;96.03;100895.03;5064593;28;20059;-73
2023/07/16 09:19:13;;;;;;;5.70;3.08;;;;;;;20.62;93.90;100903.34;5050730;28;20477;-74
2023/07/16 09:21:59;;;;;;;7.22;3.42;;;;;;;20.30;96.14;100910.53;5066695;28;20411;-74
2023/07/16 09:24:47;;;;;;;5.75;2.78;;;;;;;20.15;96.57;100901.97;5080254;28;20070;-74
2023/07/16 09:27:36;;;;;;;8.02;2.90;;;;;;;20.39;96.80;100898.16;5069349;28;20040;-74
2023/07/16 09:30:22;;;;;;;6.80;3.15;;;;;;;20.65;95.34;100888.78;5068197;28;20476;-74
2023/07/16 09:33:12;;;;;;;5.97;2.97;;;;;;;20.79;94.74;100911.78;5069575;28;20202;-74
2023/07/16 09:35:58;;;;;;;7.07;3.13;;;;;;;20.66;93.43;100912.88;5070053;28;20036;-73
2023/07/16 09:38:44;;;;;;;6.57;3.22;;;;;;;20.46;93.30;100920.84;5070091;28;20055;-75
2023/07/16 09:41:30;;;;;;;8.48;3.60;;;;;;;20.29;93.80;100932.19;5070049;28;20042;-74
2023/07/16 09:44:16;;;;;;;8.05;2.95;;;;;;;20.28;94.55;100925.09;5064405;28;20056;-75
2023/07/16 09:47:02;;;;;;;6.57;3.58;;;;;;;20.25;94.42;100928.06;5062022;28;20050;-74
2023/07/16 09:49:48;;;;;;;6.55;3.35;;;;;;;20.43;93.73;100929.16;5061295;28;20032;-74
2023/07/16 09:52:34;;;;;;;10.13;3.65;;;;;;;20.63;94.08;100938.19;5062655;28;20085;-75
2023/07/16 09:55:22;;;;;;;7.35;3.50;;;;;;;20.73;93.51;100934.69;5061994;28;20060;-76
2023/07/16 09:58:09;;;;;;;5.47;2.92;;;;;;;20.73;92.63;100946.31;5050660;28;20067;-74
2023/07/16 10:00:56;;;;;;;5.70;2.97;;;;;;;20.63;91.66;100951.63;5049406;28;20033;-73
2023/07/16 10:03:50;;;;;;;6.03;3.22;;;;;;;20.44;88.87;100952.34;5073501;28;20040;-74
2023/07/16 10:06:35;;;;;;;7.70;3.28;;;;;;;20.21;91.38;100971.31;5061076;28;20039;-74
2023/07/16 10:09:38;;;;;;;7.88;2.55;;;;;;;19.96;90.72;100969.84;5063825;28;20043;-73
2023/07/16 10:12:26;;;;;;;4.55;2.63;;;;;;;19.80;89.89;100972.91;5062171;28;20530;-78
2023/07/16 10:15:11;;;;;;;5.47;2.45;;;;;;;19.67;90.95;100987.34;5050853;28;20131;-75
2023/07/16 10:17:57;;;;;;;5.70;2.58;;;;;;;19.77;91.74;100997.38;5061837;28;20067;-75
2023/07/16 10:20:43;;;;;;;6.15;2.30;;;;;;;19.82;91.08;100984.38;5063378;28;20472;-76
2023/07/16 10:23:39;;;;;;;6.85;2.78;;;;;;;20.04;90.47;100977.28;5063296;28;20068;-74
2023/07/16 10:26:29;;;;;;;8.25;2.60;;;;;;;20.25;89.98;100973.75;5049696;28;20097;-74
2023/07/16 10:29:15;;;;;;;7.80;2.35;;;;;;;20.20;89.02;100987.56;5061205;28;20055;-74
2023/07/16 10:32:02;;;;;;;7.78;2.38;;;;;;;20.08;89.53;101006.44;5060081;28;20036;-74
2023/07/16 10:34:48;;;;;;;8.18;2.35;;;;;;;20.13;88.90;101011.41;5060971;28;20054;-73
2023/07/16 10:37:33;;;;;;;4.32;2.13;;;;;;;20.22;88.39;101007.13;5060969;28;20044;-74
2023/07/16 10:40:19;;;;;;;6.05;2.55;;;;;;;20.35;88.72;101001.53;5073872;28;20032;-74
2023/07/16 10:43:05;;;;;;;5.18;2.47;;;;;;;20.29;88.00;101021.75;5064478;27;20515;-75
2023/07/16 10:45:52;;;;;;;6.03;2.58;;;;;;;20.21;88.27;101026.91;5095415;27;20086;-74
2023/07/16 10:48:37;;;;;;;4.32;2.60;;;;;;;20.22;87.39;101029.47;5081847;27;20031;-74
2023/07/16 10:51:26;;;;;;;7.90;3.03;;;;;;;20.20;86.43;101025.19;5055873;27;20044;-76
2023/07/16 10:54:12;;;;;;;4.30;2.20;;;;;;;20.12;86.55;101015.09;5062386;27;20672;-74
2023/07/16 10:56:58;;;;;;;7.88;2.90;;;;;;;20.17;85.89;101030.84;5095959;27;20081;-75
2023/07/16 10:59:44;;;;;;;4.30;2.22;;;;;;;20.33;84.65;101030.41;5079579;27;20534;-75
2023/07/16 11:02:30;;;;;;;4.57;2.13;;;;;;;20.28;83.89;101040.69;5080720;27;20042;-74
2023/07/16 11:05:16;;;;;;;4.80;2.33;;;;;;;20.19;83.02;101029.72;5095076;27;20657;-74
2023/07/16 11:08:02;;;;;;;8.75;2.45;;;;;;;20.25;83.98;101039.09;5095815;27;20110;-74
2023/07/16 11:10:56;;;;;;;7.65;2.33;;;;;;;20.26;81.08;101034.59;5096327;27;20473;-74
2023/07/16 11:13:41;;;;;;;8.88;2.20;;;;;;;20.19;83.14;101055.72;5080330;27;20028;-74
2023/07/16 11:16:33;;;;;;;4.97;2.28;;;;;;;20.19;83.12;101051.22;5079853;27;20035;-75
2023/07/16 11:19:21;;;;;;;5.55;2.13;;;;;;;20.13;81.95;101069.69;5079832;27;20039;-78
2023/07/16 11:22:09;;;;;;;7.30;2.42;;;;;;;20.02;83.29;101046.38;5064396;27;20035;-74
2023/07/16 11:24:55;;;;;;;5.88;2.20;;;;;;;19.99;83.61;101060.09;5079284;27;20400;-75
2023/07/16 11:27:42;;;;;;;12.73;2.78;;;;;;;20.00;83.29;101048.34;5080653;27;20119;-75
2023/07/16 11:30:28;;;;;;;6.45;2.42;;;;;;;20.03;83.50;101040.91;5079515;27;20071;-75
2023/07/16 11:33:14;;;;;;;6.72;2.35;;;;;;;20.17;84.58;101058.56;5080594;27;20292;-76
2023/07/16 11:36:02;;;;;;;7.90;2.40;;;;;;;20.26;84.19;101061.47;5094670;27;20049;-75
2023/07/16 11:38:48;;;;;;;6.85;2.10;;;;;;;20.21;83.74;101070.75;5080384;27;20100;-75
2023/07/16 11:41:34;;;;;;;7.68;2.47;;;;;;;20.08;83.93;101070.06;5081217;27;20991;-74
2023/07/16 11:44:20;;;;;;;6.28;2.38;;;;;;;19.90;84.42;101086.69;5093846;27;20066;-75
2023/07/16 11:47:06;;;;;;;6.30;2.15;;;;;;;19.95;84.87;101087.19;5095486;27;20101;-75
2023/07/16 11:49:52;;;;;;;6.45;2.15;;;;;;;20.07;83.78;101082.66;5095035;27;20546;-76
2023/07/16 11:52:38;;;;;;;8.57;2.30;;;;;;;20.08;85.03;101079.00;5094556;27;20377;-75
2023/07/16 11:55:24;;;;;;;7.97;2.40;;;;;;;20.17;84.90;101080.06;5079767;27;20038;-75
2023/07/16 11:58:09;;;;;;;8.25;2.80;;;;;;;20.17;85.04;101085.44;5095881;27;20118;-75
2023/07/16 12:00:55;;;;;;;9.75;2.58;;;;;;;20.13;86.11;101086.66;5097028;27;20039;-74
2023/07/16 12:03:41;;;;;;;5.95;2.10;;;;;;;20.08;87.10;101089.75;5079185;28;20032;-75
2023/07/16 12:06:26;;;;;;;8.23;2.90;;;;;;;20.09;87.92;101098.63;5094039;27;20481;-74
2023/07/16 12:09:12;;;;;;;9.32;2.55;;;;;;;20.05;87.73;101099.88;5094520;27;20046;-77
2023/07/16 12:11:59;;;;;;;6.10;2.40;;;;;;;20.01;87.69;101098.41;5079919;28;20035;-75
2023/07/16 12:14:45;;;;;;;6.57;2.70;;;;;;;19.95;88.54;101097.09;5059593;28;20036;-75
2023/07/16 12:17:31;;;;;;;6.90;2.53;;;;;;;19.97;88.82;101111.25;5094633;28;20024;-76
2023/07/16 12:20:16;;;;;;;5.75;2.20;;;;;;;19.89;87.66;101114.53;5095568;28;20031;-74
2023/07/16 12:23:03;;;;;;;5.80;2.20;;;;;;;19.92;87.77;101111.59;5094886;28;21760;-74
2023/07/16 12:25:49;;;;;;;4.90;1.85;;;;;;;19.93;88.47;101109.75;5068321;28;20543;-76
2023/07/16 12:28:34;;;;;;;8.70;2.22;;;;;;;19.99;88.67;101117.34;5094517;28;20036;-74
2023/07/16 12:31:21;;;;;;;7.30;2.00;;;;;;;20.12;88.01;101135.16;5094218;28;20214;-75
2023/07/16 12:34:07;;;;;;;5.35;1.80;;;;;;;20.22;87.54;101120.84;5071780;28;20031;-75
2023/07/16 12:36:54;;;;;;;6.97;2.10;;;;;;;20.34;85.78;101134.25;5093989;28;20048;-75
2023/07/16 12:39:39;;;;;;;6.68;1.67;;;;;;;20.27;83.89;101127.69;5080641;28;20042;-75
2023/07/16 12:42:25;;;;;;;7.20;1.77;;;;;;;20.21;81.18;101137.94;5066476;28;20109;-75
2023/07/16 12:45:11;;;;;;;6.63;1.70;;;;;;;20.10;79.62;101153.25;5094309;28;20167;-78
2023/07/16 12:47:57;;;;;;;5.97;1.55;;;;;;;20.03;81.31;101164.50;5082192;28;20035;-76